Time;durP1;ratioP1;P1;durP2;ratioP2;P2;SDS_P1;SDS_P2;PMS_P1;PMS_P2;Temp;Humidity;BMP_temperature;BMP_pressure;BME280_temperature;BME280_humidity;BME280_pressure;Samples;Min_cycle;Max_cycle;Signal;HPM_P1;HPM_P2
2021/11/29 00:00:28;;;;;;;7.10;5.50;;;;;;;7.20;64.72;95132.19;107963;1275;69454;-75
2021/11/29 00:03:17;;;;;;;7.50;5.10;;;;;;;7.17;64.89;95130.69;107988;1276;59776;-67
2021/11/29 00:05:46;;;;;;;9.20;5.40;;;;;;;7.14;64.84;95129.23;108088;1275;59772;-74
2021/11/29 00:08:15;;;;;;;5.20;4.20;;;;;;;7.12;64.94;95135.16;108068;1273;71699;-72
2021/11/29 00:10:44;;;;;;;5.80;5.10;;;;;;;7.10;65.20;95125.94;108060;1272;68612;-74
2021/11/29 00:13:14;;;;;;;4.70;3.30;;;;;;;7.08;65.00;95108.54;108110;1272;70093;-69
2021/11/29 00:15:43;;;;;;;9.20;6.30;;;;;;;7.07;65.14;95099.09;107836;1276;59776;-73
2021/11/29 00:18:13;;;;;;;5.80;3.90;;;;;;;7.05;65.07;95093.67;107894;1275;59748;-75
2021/11/29 00:20:44;;;;;;;6.80;5.90;;;;;;;7.06;65.10;95094.13;108049;1275;70837;-75
2021/11/29 00:23:14;;;;;;;10.60;7.40;;;;;;;7.03;65.26;95091.00;108091;1272;68383;-74
2021/11/29 00:25:45;;;;;;;10.30;6.90;;;;;;;6.98;65.46;95085.95;108081;1274;69593;-75
2021/11/29 00:28:16;;;;;;;8.90;7.10;;;;;;;6.87;65.53;95074.10;108110;1274;59786;-72
2021/11/29 00:30:46;;;;;;;9.20;6.30;;;;;;;6.80;65.74;95073.05;108136;1272;59665;-68
2021/11/29 00:33:17;;;;;;;8.20;6.20;;;;;;;6.74;65.72;95073.78;108034;1272;71903;-72
2021/11/29 00:35:46;;;;;;;6.80;5.00;;;;;;;6.69;65.75;95069.45;107973;1275;68465;-74
2021/11/29 00:38:16;;;;;;;6.10;4.60;;;;;;;6.64;65.80;95070.10;108069;1272;69419;-75
2021/11/29 00:40:45;;;;;;;7.80;5.70;;;;;;;6.58;65.74;95072.16;108086;1273;59735;-71
2021/11/29 00:43:15;;;;;;;9.20;6.10;;;;;;;6.52;65.96;95072.38;108074;1275;59777;-74
2021/11/29 00:45:45;;;;;;;8.40;6.10;;;;;;;6.46;66.13;95064.70;107921;1272;71584;-75
2021/11/29 00:48:14;;;;;;;7.40;5.60;;;;;;;6.39;66.31;95055.67;108080;1272;68466;-73
2021/11/29 00:50:43;;;;;;;9.60;6.20;;;;;;;6.31;66.61;95046.69;108139;1272;69250;-75
2021/11/29 00:53:13;;;;;;;7.40;6.10;;;;;;;6.23;66.84;95036.37;107937;1273;59797;-73
2021/11/29 00:55:43;;;;;;;8.90;6.40;;;;;;;6.15;67.11;95030.04;108005;1272;59714;-75
2021/11/29 00:58:12;;;;;;;;;;;;;;;6.09;67.43;95035.96;108019;1275;71541;-74
2021/11/29 01:00:42;;;;;;;6.00;3.90;;;;;;;6.03;67.43;95039.83;107904;1273;68480;-72
2021/11/29 01:03:11;;;;;;;8.90;6.30;;;;;;;5.96;67.56;95035.92;107829;1275;69448;-74
2021/11/29 01:05:42;;;;;;;7.40;5.60;;;;;;;5.92;67.91;95031.49;107864;1275;60234;-74
2021/11/29 01:08:11;;;;;;;6.80;5.20;;;;;;;5.84;67.94;95029.72;107999;1272;59737;-74
2021/11/29 01:10:41;;;;;;;5.70;4.50;;;;;;;5.78;67.86;95041.26;107874;1272;70800;-70
2021/11/29 01:13:10;;;;;;;;;;;;;;;5.73;67.79;95052.88;107830;1274;68747;-74
2021/11/29 01:15:40;;;;;;;4.80;3.50;;;;;;;5.70;68.13;95060.64;107897;1275;68618;-75
2021/11/29 01:18:11;;;;;;;6.80;4.80;;;;;;;5.68;68.81;95063.59;108091;1272;59720;-76
2021/11/29 01:20:43;;;;;;;9.20;6.70;;;;;;;5.65;69.10;95060.21;108089;1272;59730;-71
2021/11/29 01:23:15;;;;;;;11.90;8.20;;;;;;;5.56;68.84;95059.75;107905;1276;71617;-73
2021/11/29 01:25:46;;;;;;;6.60;5.70;;;;;;;5.45;69.01;95055.10;107903;1274;67665;-72
2021/11/29 01:28:17;;;;;;;9.20;6.40;;;;;;;5.33;69.22;95054.40;107997;1275;68678;-73
2021/11/29 01:30:46;;;;;;;;;;;;;;;5.19;69.08;95057.73;108016;1273;59893;-74
2021/11/29 01:33:16;;;;;;;8.20;6.30;;;;;;;5.06;69.30;95063.03;108012;1273;59668;-72
2021/11/29 01:35:45;;;;;;;7.30;5.00;;;;;;;4.95;69.50;95067.27;107881;1276;71393;-69
2021/11/29 01:38:14;;;;;;;5.80;3.40;;;;;;;4.85;69.94;95063.65;108079;1272;68769;-73
2021/11/29 01:40:44;;;;;;;4.90;3.40;;;;;;;4.80;69.72;95056.52;108033;1272;69262;-74
2021/11/29 01:43:17;;;;;;;4.40;3.50;;;;;;;4.78;69.80;95050.65;107976;1275;59792;-73
2021/11/29 01:45:49;;;;;;;4.40;3.10;;;;;;;4.78;69.72;95048.05;108088;1274;59713;-75
2021/11/29 01:48:20;;;;;;;7.30;5.00;;;;;;;4.87;70.84;95045.21;108174;1272;70845;-74
2021/11/29 01:50:50;;;;;;;;;;;;;;;4.96;70.72;95047.56;108132;1272;68822;-73
2021/11/29 01:53:22;;;;;;;11.30;6.70;;;;;;;5.01;71.21;95043.28;108065;1272;69241;-72
2021/11/29 01:55:56;;;;;;;5.80;4.10;;;;;;;5.07;71.46;95041.14;107875;1275;59746;-72
2021/11/29 01:58:28;;;;;;;5.40;3.50;;;;;;;5.11;71.04;95041.98;108007;1272;59700;-73
2021/11/29 02:01:04;;;;;;;10.50;7.20;;;;;;;5.16;71.02;95021.37;108105;1272;71556;-75
2021/11/29 02:03:35;;;;;;;8.60;6.90;;;;;;;5.15;71.01;95012.52;108028;1274;67793;-75
2021/11/29 02:06:05;;;;;;;7.70;5.60;;;;;;;5.09;70.97;95007.45;108024;1276;69371;-74
2021/11/29 02:08:36;;;;;;;8.70;6.60;;;;;;;5.09;71.13;94994.42;108171;1272;59732;-75
2021/11/29 02:11:06;;;;;;;8.10;6.40;;;;;;;5.03;71.22;94986.11;107804;1272;59726;-75
2021/11/29 02:13:36;;;;;;;8.20;6.40;;;;;;;5.00;71.68;94982.11;107977;1272;69799;-75
2021/11/29 02:16:08;;;;;;;8.60;6.40;;;;;;;4.94;71.96;94978.77;108109;1272;68437;-75
2021/11/29 02:18:40;;;;;;;8.40;5.80;;;;;;;4.87;71.87;94979.98;108109;1272;68651;-75
2021/11/29 02:21:17;;;;;;;8.20;6.10;;;;;;;4.83;71.96;94974.77;108126;1273;59773;-75
2021/11/29 02:23:53;;;;;;;6.50;4.90;;;;;;;4.77;72.10;94968.95;108099;1272;59683;-75
2021/11/29 02:26:26;;;;;;;7.00;5.60;;;;;;;4.68;72.12;94963.02;108135;1274;71555;-74
2021/11/29 02:29:00;;;;;;;6.30;4.20;;;;;;;4.63;72.00;94965.89;108151;1272;68417;-75
2021/11/29 02:31:34;;;;;;;5.90;4.80;;;;;;;4.56;72.23;94961.13;108103;1272;68963;-75
2021/11/29 02:34:16;;;;;;;7.30;4.70;;;;;;;4.48;72.05;94956.67;107968;1271;59792;-71
2021/11/29 02:36:47;;;;;;;5.00;4.30;;;;;;;4.43;72.24;94960.16;108175;1272;59778;-71
2021/11/29 02:39:18;;;;;;;5.60;4.50;;;;;;;4.42;72.54;94969.40;108127;1272;70710;-72
2021/11/29 02:41:50;;;;;;;6.20;4.60;;;;;;;4.43;72.45;94971.71;108002;1275;67835;-75
2021/11/29 02:44:20;;;;;;;6.50;4.40;;;;;;;4.46;72.33;94969.90;108061;1272;68443;-74
2021/11/29 02:46:51;;;;;;;5.60;4.30;;;;;;;4.52;72.58;94963.34;108107;1272;59777;-75
2021/11/29 02:49:23;;;;;;;5.40;3.20;;;;;;;4.59;72.57;94965.48;108086;1272;59728;-72
2021/11/29 02:51:55;;;;;;;;;;;;;;;4.63;72.28;94973.96;108160;1272;70611;-69
2021/11/29 02:54:30;;;;;;;5.60;4.10;;;;;;;4.68;72.34;94973.53;108008;1272;68530;-73
2021/11/29 02:57:06;;;;;;;5.50;3.90;;;;;;;4.73;72.06;94958.13;107794;1275;69248;-75
2021/11/29 02:59:40;;;;;;;5.00;3.70;;;;;;;4.79;72.08;94951.30;108028;1272;59766;-74
2021/11/29 03:02:14;;;;;;;4.00;3.00;;;;;;;4.86;72.15;94949.29;108085;1272;59700;-74
2021/11/29 03:04:47;;;;;;;4.70;3.70;;;;;;;4.92;71.93;94945.71;108029;1271;71628;-73
2021/11/29 03:07:19;;;;;;;4.40;2.80;;;;;;;5.00;71.77;94942.17;107997;1272;68607;-75
2021/11/29 03:09:50;;;;;;;6.40;3.80;;;;;;;5.07;71.51;94941.05;108108;1272;69249;-75
2021/11/29 03:12:20;;;;;;;7.30;4.10;;;;;;;5.15;71.65;94927.27;107955;1272;59745;-75
2021/11/29 03:14:50;;;;;;;4.90;3.10;;;;;;;5.21;71.49;94918.02;107982;1274;59735;-75
2021/11/29 03:17:20;;;;;;;5.40;3.90;;;;;;;5.26;71.16;94918.43;108008;1272;71544;-69
2021/11/29 03:19:51;;;;;;;5.20;4.30;;;;;;;5.31;70.97;94910.73;107946;1272;67587;-75
2021/11/29 03:22:21;;;;;;;6.30;4.10;;;;;;;5.38;70.97;94908.56;108140;1271;68612;-75
2021/11/29 03:24:51;;;;;;;5.60;3.60;;;;;;;5.44;70.81;94890.73;108067;1275;59793;-75
2021/11/29 03:27:22;;;;;;;4.10;3.00;;;;;;;5.48;70.77;94878.08;108023;1273;59745;-74
2021/11/29 03:29:54;;;;;;;5.80;3.60;;;;;;;5.50;70.72;94873.25;107994;1275;71587;-72
2021/11/29 03:32:24;;;;;;;5.80;3.60;;;;;;;5.53;70.59;94880.67;108017;1273;68866;-73
2021/11/29 03:34:53;;;;;;;5.00;3.60;;;;;;;5.56;70.44;94890.49;108110;1272;69513;-71
2021/11/29 03:37:23;;;;;;;5.30;3.90;;;;;;;5.59;70.36;94897.75;108094;1272;59698;-74
2021/11/29 03:39:52;;;;;;;5.80;3.30;;;;;;;5.64;70.22;94897.63;107927;1272;59720;-68
2021/11/29 03:42:22;;;;;;;5.20;3.70;;;;;;;5.70;70.00;94898.70;108017;1272;71165;-70
2021/11/29 03:44:52;;;;;;;6.20;4.00;;;;;;;5.75;69.88;94894.36;108009;1274;68664;-74
2021/11/29 03:47:21;;;;;;;5.50;4.40;;;;;;;5.83;69.70;94889.14;107735;1275;69319;-74
2021/11/29 03:49:51;;;;;;;5.30;3.80;;;;;;;5.91;69.56;94893.30;107809;1274;59755;-72
2021/11/29 03:52:21;;;;;;;5.50;3.70;;;;;;;5.95;69.43;94893.54;108080;1272;59795;-72
2021/11/29 03:54:52;;;;;;;4.50;3.30;;;;;;;6.01;69.26;94886.23;108117;1272;70763;-72
2021/11/29 03:57:22;;;;;;;3.90;3.00;;;;;;;6.07;69.12;94885.37;108032;1272;68534;-75
2021/11/29 03:59:52;;;;;;;4.30;3.20;;;;;;;6.12;68.92;94875.15;108114;1272;69675;-73
2021/11/29 04:02:21;;;;;;;3.90;2.50;;;;;;;6.16;68.79;94878.83;108016;1275;59751;-74
2021/11/29 04:04:51;;;;;;;4.10;3.00;;;;;;;6.18;68.84;94888.01;108141;1272;59706;-75
2021/11/29 04:07:21;;;;;;;4.20;2.80;;;;;;;6.17;68.81;94891.84;107954;1275;71678;-75
2021/11/29 04:09:50;;;;;;;4.90;3.40;;;;;;;6.17;68.83;94888.72;107930;1275;67815;-74
2021/11/29 04:12:19;;;;;;;3.60;3.00;;;;;;;6.18;68.85;94895.38;108098;1272;69597;-75
2021/11/29 04:14:49;;;;;;;3.70;2.80;;;;;;;6.20;68.92;94911.08;108095;1272;59725;-75
2021/11/29 04:17:18;;;;;;;4.30;3.10;;;;;;;6.23;69.12;94903.90;108152;1273;59773;-74
2021/11/29 04:19:48;;;;;;;4.20;2.90;;;;;;;6.27;69.02;94897.13;107983;1272;71595;-77
2021/11/29 04:22:20;;;;;;;4.10;3.00;;;;;;;6.31;68.99;94896.36;107969;1275;68632;-74
2021/11/29 04:24:50;;;;;;;3.50;2.60;;;;;;;6.36;68.86;94905.82;107815;1275;68959;-76
2021/11/29 04:27:20;;;;;;;5.10;3.30;;;;;;;6.39;68.75;94913.63;107862;1275;59779;-73
2021/11/29 04:29:50;;;;;;;3.40;2.60;;;;;;;6.39;68.63;94913.77;107932;1275;59773;-75
2021/11/29 04:32:19;;;;;;;6.90;4.20;;;;;;;6.40;68.54;94919.05;107812;1277;70628;-76
2021/11/29 04:34:48;;;;;;;5.40;3.80;;;;;;;6.40;68.55;94915.23;107929;1274;68647;-73
2021/11/29 04:37:17;;;;;;;3.70;2.70;;;;;;;6.40;68.59;94909.95;107901;1274;69759;-69
2021/11/29 04:39:46;;;;;;;6.20;3.70;;;;;;;6.40;68.52;94914.23;107788;1276;59806;-75
2021/11/29 04:42:16;;;;;;;6.30;4.20;;;;;;;6.42;68.33;94922.15;107846;1271;59732;-72
2021/11/29 04:44:45;;;;;;;4.40;4.00;;;;;;;6.45;68.53;94919.79;107753;1275;71631;-71
2021/11/29 04:47:15;;;;;;;5.00;3.70;;;;;;;6.47;68.44;94913.07;107771;1274;68451;-75
2021/11/29 04:49:44;;;;;;;6.20;4.30;;;;;;;6.48;68.54;94922.13;107915;1275;69475;-75
2021/11/29 04:52:13;;;;;;;7.00;4.70;;;;;;;6.47;68.76;94917.90;107851;1274;59731;-76
2021/11/29 04:54:42;;;;;;;8.80;5.80;;;;;;;6.44;68.68;94914.30;107966;1272;59706;-74
2021/11/29 04:57:12;;;;;;;6.00;4.00;;;;;;;6.45;68.57;94921.73;107881;1272;71622;-70
2021/11/29 04:59:41;;;;;;;4.30;2.90;;;;;;;6.45;68.64;94924.45;107991;1274;66987;-71
2021/11/29 05:02:10;;;;;;;5.80;4.10;;;;;;;6.46;68.69;94921.99;107975;1273;69526;-71
2021/11/29 05:04:45;;;;;;;3.70;2.60;;;;;;;6.47;68.97;94922.23;107935;1273;59784;-73
2021/11/29 05:07:15;;;;;;;5.20;3.70;;;;;;;6.46;68.82;94918.80;107932;1275;59765;-74
2021/11/29 05:09:44;;;;;;;6.60;4.70;;;;;;;6.48;68.62;94914.88;108011;1275;70904;-75
2021/11/29 05:12:15;;;;;;;5.20;4.40;;;;;;;6.47;69.11;94916.50;108013;1272;68645;-76
2021/11/29 05:14:46;;;;;;;5.30;4.00;;;;;;;6.39;69.22;94918.98;107963;1274;67623;-76
2021/11/29 05:17:18;;;;;;;8.90;6.30;;;;;;;6.28;69.59;94919.99;108024;1272;59786;-75
2021/11/29 05:19:48;;;;;;;9.90;6.70;;;;;;;6.21;69.50;94926.95;107819;1276;59659;-75
2021/11/29 05:22:17;;;;;;;7.30;6.00;;;;;;;6.01;69.85;94922.41;108001;1274;71614;-73
2021/11/29 05:24:48;;;;;;;10.60;7.90;;;;;;;5.92;69.85;94927.45;107982;1272;68852;-75
2021/11/29 05:27:18;;;;;;;9.20;7.20;;;;;;;5.87;70.06;94928.21;107976;1273;69524;-68
2021/11/29 05:29:47;;;;;;;11.60;7.50;;;;;;;5.77;70.36;94931.88;107820;1275;59812;-68
2021/11/29 05:32:17;;;;;;;10.40;7.80;;;;;;;5.76;70.24;94944.79;108007;1272;59795;-73
2021/11/29 05:34:48;;;;;;;10.80;7.40;;;;;;;5.79;70.70;94955.75;107909;1273;71399;-68
2021/11/29 05:37:26;;;;;;;11.60;7.30;;;;;;;5.79;70.81;94959.55;107849;1276;67877;-67
2021/11/29 05:39:58;;;;;;;10.90;8.10;;;;;;;5.77;70.76;94956.05;107680;1275;69338;-69
2021/11/29 05:42:46;;;;;;;9.20;7.40;;;;;;;5.75;70.88;94952.79;107729;1275;59727;-68
2021/11/29 05:45:18;;;;;;;10.90;7.80;;;;;;;5.76;70.67;94946.86;107600;1275;59772;-68
2021/11/29 05:47:54;;;;;;;11.60;6.50;;;;;;;5.77;70.79;94955.42;107869;1277;71493;-68
2021/11/29 05:50:27;;;;;;;9.70;7.30;;;;;;;5.77;70.84;94966.10;107818;1272;67973;-68
2021/11/29 05:52:57;;;;;;;;;;;;;;;5.81;70.88;94982.55;107870;1272;69952;-67
2021/11/29 05:55:28;;;;;;;14.40;11.40;;;;;;;5.77;71.39;94984.93;107792;1277;59779;-74
2021/11/29 05:57:57;;;;;;;11.30;9.80;;;;;;;5.69;71.67;94976.38;107946;1273;59714;-74
2021/11/29 06:00:26;;;;;;;16.70;12.30;;;;;;;5.59;72.10;94973.62;107858;1274;71868;-75
2021/11/29 06:02:55;;;;;;;14.00;8.90;;;;;;;5.52;72.74;94969.27;107864;1275;69075;-75
2021/11/29 06:05:25;;;;;;;15.10;11.80;;;;;;;5.50;72.31;94963.73;107795;1275;68578;-69
2021/11/29 06:07:57;;;;;;;13.30;9.80;;;;;;;5.52;72.72;94972.36;107877;1274;59725;-71
2021/11/29 06:10:28;;;;;;;15.70;12.00;;;;;;;5.55;72.90;94979.16;107917;1273;59746;-69
2021/11/29 06:12:57;;;;;;;11.30;8.40;;;;;;;5.59;72.83;94991.95;107771;1275;71719;-73
2021/11/29 06:15:26;;;;;;;10.80;8.30;;;;;;;5.71;73.49;95005.38;107481;1274;512536;-73
2021/11/29 06:17:54;;;;;;;20.20;14.10;;;;;;;5.86;73.42;95019.40;107952;1274;68459;-75
2021/11/29 06:20:24;;;;;;;12.70;9.70;;;;;;;5.84;73.53;95028.36;107956;1272;60074;-73
2021/11/29 06:22:55;;;;;;;9.00;7.20;;;;;;;5.87;73.80;95036.43;108011;1275;59770;-74
2021/11/29 06:25:24;;;;;;;9.20;7.40;;;;;;;5.90;75.09;95046.36;108003;1272;71403;-75
2021/11/29 06:27:55;;;;;;;9.90;7.40;;;;;;;5.95;75.04;95042.94;108147;1272;67802;-73
2021/11/29 06:30:25;;;;;;;12.20;9.50;;;;;;;6.05;75.08;95050.52;108055;1272;67646;-74
2021/11/29 06:32:54;;;;;;;15.60;11.00;;;;;;;6.10;74.47;95057.96;108110;1272;59783;-76
2021/11/29 06:35:23;;;;;;;12.70;7.80;;;;;;;6.14;74.54;95064.20;108176;1272;59722;-69
2021/11/29 06:37:59;;;;;;;12.90;9.50;;;;;;;6.20;74.56;95078.02;108087;1272;70832;-70
2021/11/29 06:40:29;;;;;;;15.20;10.70;;;;;;;6.20;75.23;95091.52;107800;1275;67048;-67
2021/11/29 06:42:58;;;;;;;13.10;9.70;;;;;;;6.19;75.22;95102.27;107898;1272;68528;-68
2021/11/29 06:45:27;;;;;;;13.60;10.30;;;;;;;6.18;75.86;95101.94;107721;1275;59777;-69
2021/11/29 06:47:56;;;;;;;15.20;10.30;;;;;;;6.14;76.80;95106.58;108022;1272;59756;-71
2021/11/29 06:50:25;;;;;;;18.30;13.30;;;;;;;6.11;76.54;95109.42;107833;1275;71750;-71
2021/11/29 06:52:54;;;;;;;19.80;14.60;;;;;;;6.10;76.46;95106.70;107972;1272;68739;-72
2021/11/29 06:55:24;;;;;;;19.70;12.60;;;;;;;6.03;77.31;95102.02;107959;1275;69875;-70
2021/11/29 06:57:53;;;;;;;18.80;13.40;;;;;;;5.96;77.30;95091.23;108076;1272;59742;-71
2021/11/29 07:00:24;;;;;;;13.90;9.80;;;;;;;5.92;77.64;95095.95;108097;1271;59675;-70
2021/11/29 07:02:55;;;;;;;23.80;15.20;;;;;;;5.89;77.70;95100.21;108075;1271;70900;-70
2021/11/29 07:05:28;;;;;;;22.80;15.80;;;;;;;5.90;77.46;95109.25;107979;1272;67974;-69
2021/11/29 07:07:57;;;;;;;25.80;18.60;;;;;;;5.90;77.75;95124.27;108075;1272;68640;-67
2021/11/29 07:10:28;;;;;;;22.20;16.50;;;;;;;5.80;78.39;95130.19;108050;1272;59795;-69
2021/11/29 07:12:58;;;;;;;25.50;18.50;;;;;;;5.71;78.59;95145.34;108017;1273;59748;-71
2021/11/29 07:15:30;;;;;;;27.50;20.60;;;;;;;5.60;79.03;95162.69;108076;1272;70767;-71
2021/11/29 07:18:00;;;;;;;31.00;21.10;;;;;;;5.54;79.49;95165.98;108014;1272;68619;-71
2021/11/29 07:20:29;;;;;;;26.80;21.10;;;;;;;5.44;79.58;95164.88;108009;1273;68698;-72
2021/11/29 07:22:59;;;;;;;71.00;47.90;;;;;;;5.40;79.74;95169.51;108071;1272;59729;-71
2021/11/29 07:25:28;;;;;;;69.70;43.10;;;;;;;5.37;80.22;95177.42;108031;1272;59770;-70
2021/11/29 07:27:57;;;;;;;117.80;74.40;;;;;;;5.36;80.26;95181.79;107933;1272;71647;-69
2021/11/29 07:30:28;;;;;;;80.90;55.50;;;;;;;5.34;80.33;95183.49;107918;1274;68663;-68
2021/11/29 07:32:58;;;;;;;34.70;23.20;;;;;;;5.33;80.18;95181.19;108012;1272;68696;-71
2021/11/29 07:35:29;;;;;;;22.90;16.60;;;;;;;5.36;80.44;95180.20;108167;1272;59738;-70
2021/11/29 07:37:58;;;;;;;20.90;14.50;;;;;;;5.43;80.40;95180.70;108082;1272;59709;-68
2021/11/29 07:40:29;;;;;;;22.60;16.20;;;;;;;5.49;80.18;95177.04;108087;1272;70745;-71
2021/11/29 07:43:05;;;;;;;18.80;13.90;;;;;;;5.53;79.67;95173.23;108112;1271;67878;-71
2021/11/29 07:45:36;;;;;;;17.00;12.10;;;;;;;5.57;79.51;95160.89;108112;1272;69500;-71
2021/11/29 07:48:05;;;;;;;24.50;18.10;;;;;;;5.64;79.31;95153.28;107998;1275;59719;-71
2021/11/29 07:50:35;;;;;;;17.10;11.90;;;;;;;5.67;79.64;95166.48;108061;1272;59700;-69
2021/11/29 07:53:05;;;;;;;15.70;11.90;;;;;;;5.70;80.09;95169.95;108124;1272;71678;-70
2021/11/29 07:55:34;;;;;;;17.20;11.30;;;;;;;5.75;80.32;95167.45;108101;1272;69257;-70
2021/11/29 07:58:04;;;;;;;22.40;16.40;;;;;;;5.80;80.44;95176.02;108074;1272;69458;-71
2021/11/29 08:00:37;;;;;;;20.70;15.50;;;;;;;5.81;80.04;95187.80;107894;1274;60045;-69
2021/11/29 08:03:07;;;;;;;22.40;15.50;;;;;;;5.79;80.38;95190.23;108126;1272;59726;-70
2021/11/29 08:05:37;;;;;;;22.00;16.20;;;;;;;5.79;80.56;95188.55;108107;1272;71241;-71
2021/11/29 08:08:09;;;;;;;17.10;11.80;;;;;;;5.77;81.67;95186.17;107961;1272;68221;-70
2021/11/29 08:10:39;;;;;;;19.90;15.10;;;;;;;5.74;82.12;95190.91;108085;1272;68461;-70
2021/11/29 08:13:12;;;;;;;22.30;16.20;;;;;;;5.73;81.82;95194.46;108063;1272;60160;-70
2021/11/29 08:15:41;;;;;;;16.80;12.30;;;;;;;5.74;81.97;95201.30;107974;1272;59722;-69
2021/11/29 08:18:11;;;;;;;14.00;11.50;;;;;;;5.71;82.84;95205.02;107939;1274;72026;-71
2021/11/29 08:20:40;;;;;;;16.60;12.00;;;;;;;5.73;82.69;95196.48;107998;1272;68604;-69
2021/11/29 08:23:10;;;;;;;11.50;7.80;;;;;;;5.71;83.43;95191.73;108020;1272;70026;-70
2021/11/29 08:25:40;;;;;;;8.70;6.10;;;;;;;5.71;83.73;95210.17;107807;1274;59733;-70
2021/11/29 08:28:14;;;;;;;10.10;6.10;;;;;;;5.73;83.95;95220.88;108117;1272;59764;-71
2021/11/29 08:30:44;;;;;;;9.80;7.20;;;;;;;5.74;83.81;95220.94;107912;1272;71558;-69
2021/11/29 08:33:13;;;;;;;13.20;7.80;;;;;;;5.74;83.80;95229.60;108078;1271;67605;-68
2021/11/29 08:35:44;;;;;;;10.40;8.10;;;;;;;5.77;83.05;95228.65;107930;1275;69855;-68
2021/11/29 08:38:14;;;;;;;13.50;10.50;;;;;;;5.79;83.03;95226.71;108162;1272;59777;-69
2021/11/29 08:40:43;;;;;;;13.90;11.40;;;;;;;5.76;83.30;95229.64;107977;1272;59665;-69
2021/11/29 08:43:16;;;;;;;12.40;10.00;;;;;;;5.73;83.61;95222.23;108084;1272;70771;-69
2021/11/29 08:45:49;;;;;;;15.60;10.70;;;;;;;5.71;83.53;95213.80;108082;1272;68407;-69
2021/11/29 08:48:20;;;;;;;12.20;9.60;;;;;;;5.65;84.00;95211.55;108061;1272;69245;-68
2021/11/29 08:50:52;;;;;;;10.50;7.80;;;;;;;5.69;83.61;95210.73;107848;1275;60261;-68
2021/11/29 08:53:24;;;;;;;9.10;7.60;;;;;;;5.65;83.78;95215.00;107989;1272;60226;-70
2021/11/29 08:55:54;;;;;;;17.60;13.70;;;;;;;5.61;84.07;95220.70;107953;1272;70585;-68
2021/11/29 08:58:23;;;;;;;;;;;;;;;5.62;84.19;95217.37;108002;1273;67660;-70
2021/11/29 09:00:54;;;;;;;12.40;9.50;;;;;;;5.57;84.52;95208.96;107926;1275;69299;-67
2021/11/29 09:03:24;;;;;;;10.30;7.80;;;;;;;5.55;84.49;95210.02;108066;1272;59808;-67
2021/11/29 09:05:54;;;;;;;13.30;9.10;;;;;;;5.51;84.86;95204.34;108075;1272;59741;-67
2021/11/29 09:08:24;;;;;;;8.60;6.20;;;;;;;5.52;84.51;95195.20;107919;1274;71613;-68
2021/11/29 09:10:53;;;;;;;7.70;5.80;;;;;;;5.57;84.94;95192.02;107808;1272;68088;-67
2021/11/29 09:13:44;;;;;;;7.70;4.80;;;;;;;5.67;84.65;95193.91;107983;1272;69008;-67
2021/11/29 09:16:16;;;;;;;7.50;5.30;;;;;;;5.72;84.60;95189.65;107954;1273;59787;-67
2021/11/29 09:18:46;;;;;;;7.10;4.30;;;;;;;5.78;84.54;95184.17;108024;1272;59786;-67
2021/11/29 09:21:16;;;;;;;;;;;;;;;5.85;84.38;95180.22;107883;1273;71999;-67
2021/11/29 09:23:46;;;;;;;8.10;7.20;;;;;;;5.94;83.86;95178.08;108040;1271;69210;-68
2021/11/29 09:26:16;;;;;;;6.40;5.70;;;;;;;6.01;83.61;95170.13;107984;1275;69495;-67
2021/11/29 09:28:45;;;;;;;7.10;5.50;;;;;;;6.10;83.41;95175.27;108045;1271;59786;-68
2021/11/29 09:31:14;;;;;;;8.70;7.30;;;;;;;6.18;83.19;95165.55;107982;1272;59717;-69
2021/11/29 09:33:43;;;;;;;5.90;4.40;;;;;;;6.25;82.54;95157.98;108006;1272;71684;-67
2021/11/29 09:36:12;;;;;;;4.90;3.60;;;;;;;6.30;82.72;95152.89;108033;1272;68577;-67
2021/11/29 09:38:42;;;;;;;7.20;6.50;;;;;;;6.33;82.24;95142.71;107869;1275;68694;-67
2021/11/29 09:41:11;;;;;;;8.70;7.00;;;;;;;6.34;82.23;95141.55;108049;1271;60173;-67
2021/11/29 09:43:40;;;;;;;7.50;5.70;;;;;;;6.33;82.06;95150.98;108138;1272;59721;-68
2021/11/29 09:46:09;;;;;;;5.80;4.30;;;;;;;6.29;82.29;95153.80;108003;1272;72010;-69
2021/11/29 09:48:38;;;;;;;8.10;5.60;;;;;;;6.29;82.09;95152.46;107923;1274;68417;-67
2021/11/29 09:51:28;;;;;;;7.30;6.50;;;;;;;6.29;81.76;95151.70;108041;1271;69417;-68
2021/11/29 09:53:57;;;;;;;15.60;13.70;;;;;;;6.32;82.07;95155.59;108050;1272;59741;-68
2021/11/29 09:56:27;;;;;;;9.90;8.30;;;;;;;6.37;81.91;95163.23;107969;1275;59789;-67
2021/11/29 09:58:57;;;;;;;13.10;11.80;;;;;;;6.44;81.55;95168.57;107921;1274;70761;-68
2021/11/29 10:01:26;;;;;;;9.80;8.00;;;;;;;6.50;81.38;95172.45;108047;1272;68458;-67
2021/11/29 10:04:05;;;;;;;5.80;4.30;;;;;;;6.56;81.09;95171.86;108010;1272;69559;-67
2021/11/29 10:06:34;;;;;;;6.10;4.30;;;;;;;6.62;80.92;95168.75;107907;1274;59755;-67
2021/11/29 10:09:35;;;;;;;6.00;4.50;;;;;;;6.70;80.61;95168.23;107831;1274;59770;-68
2021/11/29 10:12:10;;;;;;;4.70;4.10;;;;;;;6.80;79.90;95151.20;108019;1272;71576;-67
2021/11/29 10:14:39;;;;;;;4.60;3.40;;;;;;;6.88;79.11;95146.73;108113;1271;68817;-67
2021/11/29 10:17:08;;;;;;;5.80;3.60;;;;;;;6.99;78.79;95146.65;107820;1275;68237;-67
2021/11/29 10:19:38;;;;;;;4.00;3.30;;;;;;;7.02;78.50;95134.19;108082;1272;59780;-67
2021/11/29 10:22:17;;;;;;;3.90;3.10;;;;;;;7.08;78.44;95129.30;108096;1272;59757;-68
2021/11/29 10:24:48;;;;;;;3.50;2.60;;;;;;;7.10;77.88;95134.31;108092;1272;70608;-70
2021/11/29 10:27:20;;;;;;;3.60;2.50;;;;;;;7.14;77.87;95139.81;108078;1272;68388;-68
2021/11/29 10:29:56;;;;;;;3.90;3.20;;;;;;;7.17;77.27;95148.88;107844;1271;69445;-68
2021/11/29 10:32:41;;;;;;;3.00;2.20;;;;;;;7.17;76.99;95153.73;107954;1271;59736;-69
2021/11/29 10:35:13;;;;;;;2.90;2.20;;;;;;;7.18;77.26;95152.66;108099;1272;59705;-68
2021/11/29 10:37:45;;;;;;;2.70;1.70;;;;;;;7.18;77.08;95153.70;108120;1272;71334;-68
2021/11/29 10:40:19;;;;;;;3.60;2.30;;;;;;;7.14;76.92;95166.15;107813;1275;68673;-68
2021/11/29 10:42:49;;;;;;;4.10;3.10;;;;;;;7.10;76.59;95173.65;108038;1271;69475;-68
2021/11/29 10:45:22;;;;;;;3.70;2.40;;;;;;;7.04;76.75;95173.67;107807;1275;59751;-67
2021/11/29 10:47:54;;;;;;;3.10;2.00;;;;;;;7.03;76.80;95168.02;107938;1275;59697;-67
2021/11/29 10:50:26;;;;;;;2.40;1.60;;;;;;;7.03;76.44;95175.65;108168;1272;69634;-68
2021/11/29 10:53:12;;;;;;;2.70;1.60;;;;;;;7.06;76.53;95175.03;107914;1272;68800;-67
2021/11/29 10:56:01;;;;;;;4.00;3.20;;;;;;;7.10;76.41;95181.95;107959;1272;69480;-68
2021/11/29 10:58:41;;;;;;;2.80;1.70;;;;;;;7.11;75.97;95193.56;107797;1271;59789;-68
2021/11/29 11:01:13;;;;;;;8.10;6.20;;;;;;;7.15;76.29;95195.52;107865;1276;59779;-69
2021/11/29 11:03:49;;;;;;;4.10;2.90;;;;;;;7.17;76.08;95206.46;107969;1272;70891;-67
2021/11/29 11:06:30;;;;;;;3.60;2.30;;;;;;;7.17;75.70;95212.67;107990;1272;67669;-67
2021/11/29 11:08:59;;;;;;;4.40;2.80;;;;;;;7.15;75.64;95214.20;107924;1274;69525;-68
2021/11/29 11:11:33;;;;;;;3.30;2.20;;;;;;;7.13;75.29;95220.20;107971;1272;59757;-68
2021/11/29 11:14:15;;;;;;;2.70;2.40;;;;;;;7.15;75.64;95214.66;107832;1275;59685;-66
2021/11/29 11:17:01;;;;;;;3.80;2.70;;;;;;;7.14;75.62;95210.13;108024;1272;71642;-68
2021/11/29 11:19:43;;;;;;;3.40;2.10;;;;;;;7.10;75.31;95213.75;108151;1272;68913;-67
2021/11/29 11:22:21;;;;;;;3.20;2.00;;;;;;;7.10;75.50;95212.77;107784;1274;68058;-69
2021/11/29 11:24:55;;;;;;;2.40;2.00;;;;;;;7.11;75.52;95209.84;107857;1273;59706;-68
2021/11/29 11:27:30;;;;;;;2.70;2.00;;;;;;;7.14;75.44;95209.20;107936;1271;59675;-67
2021/11/29 11:30:03;;;;;;;3.10;2.10;;;;;;;7.15;75.25;95207.92;107978;1272;71589;-69
2021/11/29 11:32:34;;;;;;;2.40;2.20;;;;;;;7.16;75.28;95214.97;107908;1272;68187;-69
2021/11/29 11:35:10;;;;;;;2.40;1.80;;;;;;;7.14;74.53;95218.27;107939;1275;70019;-67
2021/11/29 11:37:45;;;;;;;3.00;2.30;;;;;;;7.14;74.74;95224.69;107782;1275;59738;-69
2021/11/29 11:40:22;;;;;;;2.80;1.80;;;;;;;7.19;74.72;95222.80;108136;1272;59732;-68
2021/11/29 11:42:53;;;;;;;2.70;2.00;;;;;;;7.27;74.66;95224.84;107796;1272;71535;-68
2021/11/29 11:45:26;;;;;;;2.70;1.90;;;;;;;7.34;74.70;95225.58;107927;1273;67920;-67
2021/11/29 11:47:59;;;;;;;2.40;1.60;;;;;;;7.41;74.72;95222.52;107823;1274;69682;-68
2021/11/29 11:50:33;;;;;;;3.10;2.80;;;;;;;7.47;74.67;95218.41;107871;1272;59748;-68